Time;durP1;ratioP1;P1;durP2;ratioP2;P2;SDS_P1;SDS_P2;PMS_P1;PMS_P2;Temp;Humidity;BMP_temperature;BMP_pressure;BME280_temperature;BME280_humidity;BME280_pressure;Samples;Min_cycle;Max_cycle;Signal;HPM_P1;HPM_P2
2021/08/23 00:00:47;;;;;;;4.47;1.90;;;18.50;75.40;;;;;;5045132;28;20028;-53
2021/08/23 00:03:32;;;;;;;3.42;1.70;;;18.50;75.00;;;;;;5045105;28;20037;-50
2021/08/23 00:06:16;;;;;;;2.95;1.80;;;18.40;75.00;;;;;;5044935;28;20036;-54
2021/08/23 00:09:00;;;;;;;3.15;1.73;;;18.30;75.10;;;;;;5046227;28;20024;-53
2021/08/23 00:11:44;;;;;;;3.50;1.95;;;18.40;74.90;;;;;;5045857;28;20052;-53
2021/08/23 00:14:29;;;;;;;5.07;1.85;;;18.30;74.80;;;;;;5045675;28;20048;-53
2021/08/23 00:17:13;;;;;;;3.35;1.70;;;18.30;74.70;;;;;;5045988;28;20367;-52
2021/08/23 00:19:57;;;;;;;3.80;2.13;;;18.30;74.80;;;;;;5045933;28;20209;-52
2021/08/23 00:22:48;;;;;;;3.88;1.90;;;18.30;74.90;;;;;;5045569;28;20406;-53
2021/08/23 00:25:32;;;;;;;3.17;2.20;;;18.30;74.60;;;;;;5044627;28;20097;-50
2021/08/23 00:28:16;;;;;;;4.15;1.98;;;18.30;74.60;;;;;;5045485;28;20135;-52
2021/08/23 00:31:01;;;;;;;5.60;2.10;;;18.20;74.30;;;;;;5045466;28;20032;-51
2021/08/23 00:33:45;;;;;;;4.20;2.00;;;18.10;74.70;;;;;;5045201;28;20044;-52
2021/08/23 00:36:29;;;;;;;3.35;2.08;;;18.10;74.60;;;;;;5045314;28;20094;-53
2021/08/23 00:39:14;;;;;;;6.05;1.65;;;18.10;74.60;;;;;;5045107;28;20360;-53
2021/08/23 00:41:58;;;;;;;4.68;2.13;;;18.10;74.70;;;;;;5045510;28;20089;-51
2021/08/23 00:44:43;;;;;;;4.35;1.77;;;18.10;74.60;;;;;;5045155;28;20083;-53
2021/08/23 00:47:27;;;;;;;3.70;2.10;;;18.00;74.40;;;;;;5044124;28;20060;-50
2021/08/23 00:50:11;;;;;;;5.30;2.03;;;18.00;74.30;;;;;;5045180;28;20075;-51
2021/08/23 00:52:57;;;;;;;6.03;2.00;;;17.90;74.20;;;;;;5045208;28;20080;-51
2021/08/23 00:55:41;;;;;;;3.58;2.05;;;17.90;74.20;;;;;;5030254;28;20040;-53
2021/08/23 00:58:25;;;;;;;4.95;1.92;;;17.80;74.10;;;;;;5044883;28;20040;-49
2021/08/23 01:01:27;;;;;;;4.00;2.05;;;17.90;74.30;;;;;;5044874;28;20032;-54
2021/08/23 01:04:34;;;;;;;4.13;2.05;;;17.80;74.30;;;;;;5030958;28;20095;-52
2021/08/23 01:07:19;;;;;;;5.10;1.80;;;17.80;74.30;;;;;;5044798;28;20071;-54
2021/08/23 01:10:07;;;;;;;6.85;1.92;;;17.80;74.30;;;;;;5029855;28;20212;-51
2021/08/23 01:12:52;;;;;;;2.53;1.60;;;17.80;74.40;;;;;;5044527;28;20071;-52
2021/08/23 01:15:36;;;;;;;6.00;2.00;;;17.80;74.60;;;;;;5044504;28;20052;-52
2021/08/23 01:18:21;;;;;;;3.22;1.90;;;17.80;74.50;;;;;;5044311;28;20252;-52
2021/08/23 01:21:07;;;;;;;4.68;2.17;;;17.70;74.50;;;;;;5044787;28;20056;-53
2021/08/23 01:23:51;;;;;;;4.85;2.20;;;17.80;74.60;;;;;;5043539;28;20217;-53
2021/08/23 01:26:41;;;;;;;3.33;1.80;;;17.70;74.60;;;;;;5043374;28;20068;-52
2021/08/23 01:29:50;;;;;;;5.95;1.95;;;17.70;74.60;;;;;;5029754;28;20033;-50
2021/08/23 01:32:35;;;;;;;3.28;1.95;;;17.60;74.50;;;;;;5043743;28;20045;-53
2021/08/23 01:35:18;;;;;;;3.03;1.92;;;17.60;74.30;;;;;;5044561;28;20103;-52
2021/08/23 01:38:03;;;;;;;5.30;2.10;;;17.60;74.30;;;;;;5043054;28;20033;-52
2021/08/23 01:40:47;;;;;;;4.10;1.90;;;17.50;74.20;;;;;;5044077;28;20032;-50
2021/08/23 01:43:32;;;;;;;4.10;1.92;;;17.60;74.30;;;;;;5044061;28;20225;-53
2021/08/23 01:46:16;;;;;;;3.05;2.08;;;17.50;74.60;;;;;;5029448;28;20076;-51
2021/08/23 01:49:05;;;;;;;4.32;2.08;;;17.50;74.50;;;;;;5043946;28;20093;-51
2021/08/23 01:51:49;;;;;;;3.78;1.92;;;17.50;74.60;;;;;;5043932;28;20071;-52
2021/08/23 01:54:33;;;;;;;5.78;3.00;;;17.60;74.60;;;;;;5043928;28;20032;-52
2021/08/23 01:57:19;;;;;;;3.42;2.17;;;17.50;74.70;;;;;;5043476;28;20375;-51
2021/08/23 02:00:03;;;;;;;4.13;1.95;;;17.60;75.00;;;;;;5043979;28;20078;-53
2021/08/23 02:02:48;;;;;;;4.70;2.10;;;17.60;75.00;;;;;;5043861;28;20037;-53
2021/08/23 02:05:32;;;;;;;5.35;2.10;;;17.60;74.80;;;;;;5044240;28;20035;-51
2021/08/23 02:08:16;;;;;;;3.95;2.10;;;17.60;74.70;;;;;;5043611;28;20076;-53
2021/08/23 02:11:01;;;;;;;3.15;1.90;;;17.60;74.80;;;;;;5043715;28;20037;-53
2021/08/23 02:13:45;;;;;;;6.30;2.00;;;17.60;74.90;;;;;;5043481;28;20090;-51
2021/08/23 02:16:29;;;;;;;6.18;2.10;;;17.60;74.80;;;;;;5043561;28;20041;-49
2021/08/23 02:19:13;;;;;;;4.13;2.20;;;17.60;74.50;;;;;;5043985;28;20103;-52
2021/08/23 02:21:58;;;;;;;4.57;1.80;;;17.70;74.40;;;;;;5043506;28;20029;-53
2021/08/23 02:24:42;;;;;;;4.68;2.22;;;17.70;74.40;;;;;;5042512;28;20196;-53
2021/08/23 02:27:27;;;;;;;3.58;2.10;;;17.70;74.50;;;;;;5043420;28;20028;-51
2021/08/23 02:30:11;;;;;;;7.72;2.67;;;17.70;74.50;;;;;;5043882;28;20028;-49
2021/08/23 02:32:55;;;;;;;5.07;1.95;;;17.70;74.50;;;;;;5043575;28;20065;-53
2021/08/23 02:35:40;;;;;;;4.03;1.98;;;17.60;74.20;;;;;;5043566;28;20075;-53
2021/08/23 02:38:24;;;;;;;3.83;1.85;;;17.60;74.30;;;;;;5043820;28;20065;-53
2021/08/23 02:41:08;;;;;;;4.70;2.35;;;17.70;74.60;;;;;;5043841;28;20025;-52
2021/08/23 02:43:53;;;;;;;3.17;1.77;;;17.60;74.80;;;;;;5043297;28;20032;-52
2021/08/23 02:46:37;;;;;;;4.85;1.98;;;17.60;74.90;;;;;;5043578;28;20068;-51
2021/08/23 02:49:22;;;;;;;4.07;2.10;;;17.60;74.70;;;;;;5043534;28;20032;-53
2021/08/23 02:52:06;;;;;;;2.92;1.75;;;17.50;74.90;;;;;;5043437;28;20045;-52
2021/08/23 02:54:51;;;;;;;3.22;1.70;;;17.60;75.00;;;;;;5043389;28;20048;-52
2021/08/23 02:57:35;;;;;;;6.28;2.20;;;17.60;75.00;;;;;;5043218;28;20340;-50
2021/08/23 03:00:19;;;;;;;3.05;1.80;;;17.60;74.80;;;;;;5043108;28;20071;-50
2021/08/23 03:03:04;;;;;;;3.67;1.95;;;17.60;74.80;;;;;;5043673;28;20063;-49
2021/08/23 03:05:48;;;;;;;3.03;1.70;;;17.70;74.60;;;;;;5043317;28;20040;-50
2021/08/23 03:08:32;;;;;;;3.08;1.80;;;17.60;74.40;;;;;;5043704;28;20047;-52
2021/08/23 03:11:16;;;;;;;4.28;1.90;;;17.60;74.20;;;;;;5044112;28;20028;-52
2021/08/23 03:14:01;;;;;;;4.85;1.83;;;17.60;74.20;;;;;;5046787;28;20048;-53
2021/08/23 03:16:45;;;;;;;3.40;1.60;;;17.60;74.30;;;;;;5046934;28;20060;-51
2021/08/23 03:19:29;;;;;;;5.53;1.73;;;17.50;74.70;;;;;;5046963;28;20120;-50
2021/08/23 03:22:14;;;;;;;4.78;2.00;;;17.60;74.70;;;;;;5046625;28;20044;-53
2021/08/23 03:24:58;;;;;;;4.57;1.98;;;17.60;74.60;;;;;;5046689;28;20209;-51
2021/08/23 03:27:42;;;;;;;4.25;1.88;;;17.60;74.60;;;;;;5046522;28;20040;-53
2021/08/23 03:30:26;;;;;;;4.18;2.15;;;17.50;74.60;;;;;;5047461;28;20103;-52
2021/08/23 03:33:11;;;;;;;5.57;1.95;;;17.60;74.40;;;;;;5046844;28;20028;-49
2021/08/23 03:35:55;;;;;;;3.35;1.90;;;17.40;74.40;;;;;;5046501;28;20055;-49
2021/08/23 03:38:41;;;;;;;5.50;1.65;;;17.40;74.30;;;;;;5046461;28;20101;-50
2021/08/23 03:41:25;;;;;;;3.45;1.80;;;17.40;74.20;;;;;;5046736;28;20044;-53
2021/08/23 03:44:10;;;;;;;2.45;1.60;;;17.40;74.50;;;;;;5046280;28;20024;-52
2021/08/23 03:46:54;;;;;;;3.10;1.83;;;17.40;74.70;;;;;;5046171;28;20360;-52
2021/08/23 03:49:39;;;;;;;2.88;1.70;;;17.40;74.60;;;;;;5046053;28;20033;-53
2021/08/23 03:52:24;;;;;;;2.70;1.55;;;17.40;74.60;;;;;;5046019;28;20144;-51
2021/08/23 03:55:09;;;;;;;4.30;1.83;;;17.40;74.60;;;;;;5045996;28;20136;-50
2021/08/23 03:57:53;;;;;;;4.10;2.00;;;17.40;74.80;;;;;;5044948;28;20040;-53
2021/08/23 04:00:37;;;;;;;4.80;2.00;;;17.40;74.90;;;;;;5046097;28;20040;-50
2021/08/23 04:03:22;;;;;;;2.58;1.75;;;17.40;75.00;;;;;;5045907;28;20036;-52
2021/08/23 04:06:10;;;;;;;3.13;1.75;;;17.40;74.90;;;;;;5046279;28;20056;-51
2021/08/23 04:08:54;;;;;;;3.13;1.60;;;17.40;74.80;;;;;;5045875;28;20271;-51
2021/08/23 04:11:39;;;;;;;5.38;2.00;;;17.50;75.00;;;;;;5045833;28;20063;-53
2021/08/23 04:14:23;;;;;;;2.90;1.70;;;17.50;75.10;;;;;;5045481;28;20071;-52
2021/08/23 04:17:07;;;;;;;4.43;2.00;;;17.50;75.10;;;;;;5045888;28;20367;-51
2021/08/23 04:19:51;;;;;;;3.03;1.75;;;17.40;75.20;;;;;;5045707;28;20049;-50
2021/08/23 04:22:36;;;;;;;4.60;2.63;;;17.40;75.20;;;;;;5045346;28;20080;-52
2021/08/23 04:25:20;;;;;;;4.20;1.80;;;17.40;75.10;;;;;;5045688;28;20033;-50
2021/08/23 04:28:04;;;;;;;3.72;2.03;;;17.40;75.10;;;;;;5045437;28;20105;-52
2021/08/23 04:30:48;;;;;;;4.93;1.90;;;17.40;75.30;;;;;;5045329;28;20032;-50
2021/08/23 04:33:33;;;;;;;3.58;1.80;;;17.40;75.50;;;;;;5045347;28;20119;-53
2021/08/23 04:36:17;;;;;;;5.47;1.73;;;17.40;75.40;;;;;;5045152;28;20016;-53
2021/08/23 04:39:02;;;;;;;3.90;1.75;;;17.40;75.40;;;;;;5045501;28;20033;-53
2021/08/23 04:41:46;;;;;;;3.72;2.22;;;17.40;75.50;;;;;;5045238;28;20037;-50
2021/08/23 04:44:30;;;;;;;4.85;1.70;;;17.40;75.70;;;;;;5045565;28;20216;-53
2021/08/23 04:47:14;;;;;;;3.85;1.75;;;17.50;75.50;;;;;;5044990;28;20143;-52
2021/08/23 04:49:59;;;;;;;10.73;1.90;;;17.40;75.40;;;;;;5044937;28;20044;-52
2021/08/23 04:52:44;;;;;;;3.10;1.85;;;17.50;75.10;;;;;;5045310;28;20447;-52
2021/08/23 04:55:28;;;;;;;4.18;1.98;;;17.40;75.40;;;;;;5044780;28;20075;-53
2021/08/23 04:58:12;;;;;;;3.85;1.88;;;17.50;75.50;;;;;;5044860;28;20033;-49
2021/08/23 05:00:56;;;;;;;2.88;1.90;;;17.50;75.30;;;;;;5045180;28;20351;-52
2021/08/23 05:03:40;;;;;;;3.75;2.15;;;17.60;75.60;;;;;;5044822;28;20044;-52
2021/08/23 05:06:25;;;;;;;4.00;1.88;;;17.60;75.40;;;;;;5044640;28;20068;-53
2021/08/23 05:09:09;;;;;;;3.13;1.73;;;17.50;75.20;;;;;;5045039;28;20021;-51
2021/08/23 05:11:53;;;;;;;3.15;1.90;;;17.50;75.00;;;;;;5044714;28;20032;-49
2021/08/23 05:14:37;;;;;;;4.50;1.98;;;17.60;75.30;;;;;;5044349;28;20079;-52
2021/08/23 05:17:22;;;;;;;3.30;2.03;;;17.60;75.20;;;;;;5044795;28;20037;-52
2021/08/23 05:20:06;;;;;;;4.20;1.90;;;17.60;75.50;;;;;;5044801;28;20028;-53
2021/08/23 05:22:53;;;;;;;3.38;1.98;;;17.60;75.30;;;;;;5044661;28;20104;-52
2021/08/23 05:25:37;;;;;;;3.38;2.00;;;17.60;75.30;;;;;;5044509;28;20072;-51
2021/08/23 05:28:21;;;;;;;3.08;1.92;;;17.60;75.40;;;;;;5044674;28;20220;-50
2021/08/23 05:31:05;;;;;;;7.82;1.58;;;17.60;75.30;;;;;;5044371;28;20127;-53
2021/08/23 05:33:50;;;;;;;6.25;1.75;;;17.60;75.20;;;;;;5043746;28;20095;-49
2021/08/23 05:36:34;;;;;;;3.53;1.70;;;17.60;75.30;;;;;;5044076;28;20021;-53
2021/08/23 05:39:18;;;;;;;4.65;2.10;;;17.60;75.10;;;;;;5044045;28;20036;-50
2021/08/23 05:42:02;;;;;;;5.22;2.10;;;17.70;75.30;;;;;;5044426;28;20116;-51
2021/08/23 05:44:46;;;;;;;7.75;2.55;;;17.70;75.10;;;;;;5044134;28;20036;-53
2021/08/23 05:47:31;;;;;;;4.13;2.00;;;17.70;75.20;;;;;;5044456;28;20037;-53
2021/08/23 05:50:15;;;;;;;3.63;1.85;;;17.80;75.30;;;;;;5044025;28;20071;-53
2021/08/23 05:52:59;;;;;;;7.07;2.38;;;17.80;75.50;;;;;;5043859;28;20173;-51
2021/08/23 05:55:43;;;;;;;3.17;2.00;;;17.80;75.40;;;;;;5044172;28;20209;-50
2021/08/23 05:58:28;;;;;;;5.80;1.90;;;17.80;75.20;;;;;;5044023;28;20102;-52
2021/08/23 06:01:12;;;;;;;2.97;1.80;;;17.80;75.10;;;;;;5044134;28;20259;-53
2021/08/23 06:03:56;;;;;;;3.63;1.75;;;17.80;75.20;;;;;;5043703;28;20040;-50
2021/08/23 06:06:41;;;;;;;4.53;2.10;;;17.80;75.10;;;;;;5043749;28;20075;-50
2021/08/23 06:09:25;;;;;;;3.22;1.70;;;17.90;75.40;;;;;;5043645;28;20032;-50
2021/08/23 06:12:09;;;;;;;5.00;1.98;;;17.90;75.40;;;;;;5044054;28;20037;-53
2021/08/23 06:14:53;;;;;;;3.17;1.77;;;17.90;75.30;;;;;;5043694;28;20121;-52
2021/08/23 06:17:38;;;;;;;3.08;1.80;;;18.00;75.00;;;;;;5043717;28;20356;-53
2021/08/23 06:20:22;;;;;;;5.18;1.90;;;18.00;74.80;;;;;;5044076;28;20097;-51
2021/08/23 06:23:06;;;;;;;3.95;1.85;;;18.00;75.00;;;;;;5043882;28;20271;-53
2021/08/23 06:25:51;;;;;;;4.18;1.77;;;18.10;74.80;;;;;;5043573;28;20387;-52
2021/08/23 06:28:35;;;;;;;4.40;1.90;;;18.10;74.70;;;;;;5043748;28;20049;-50
2021/08/23 06:31:19;;;;;;;2.80;1.90;;;18.10;74.60;;;;;;5043619;28;20316;-49
2021/08/23 06:34:04;;;;;;;5.47;1.80;;;18.10;74.70;;;;;;5043360;28;20348;-52
2021/08/23 06:36:48;;;;;;;4.70;1.90;;;18.10;74.60;;;;;;5043338;28;20033;-51
2021/08/23 06:39:32;;;;;;;2.72;1.63;;;18.30;74.50;;;;;;5043476;28;20024;-53
2021/08/23 06:42:16;;;;;;;3.80;1.80;;;18.30;74.70;;;;;;5043351;28;20080;-52
2021/08/23 06:45:01;;;;;;;3.28;2.05;;;18.40;74.50;;;;;;5043690;28;20072;-53
2021/08/23 06:47:45;;;;;;;3.55;1.70;;;18.40;74.20;;;;;;5046391;28;20102;-51
2021/08/23 06:50:30;;;;;;;3.83;1.75;;;18.50;73.70;;;;;;5046718;28;20075;-51
2021/08/23 06:53:14;;;;;;;2.53;1.58;;;18.50;73.10;;;;;;5047583;28;20039;-52
2021/08/23 06:55:58;;;;;;;4.47;1.83;;;18.60;72.90;;;;;;5047467;28;20036;-53
2021/08/23 06:58:42;;;;;;;3.78;1.70;;;18.60;72.90;;;;;;5047035;28;20044;-54
2021/08/23 07:01:27;;;;;;;3.08;1.90;;;18.60;73.00;;;;;;5046934;28;20056;-54
2021/08/23 07:04:11;;;;;;;2.85;1.90;;;18.80;72.80;;;;;;5046929;28;20097;-54
2021/08/23 07:06:55;;;;;;;2.90;1.60;;;18.80;72.60;;;;;;5046931;28;20076;-53
2021/08/23 07:09:39;;;;;;;3.38;1.70;;;18.80;72.90;;;;;;5046876;28;20027;-53
2021/08/23 07:12:24;;;;;;;4.53;1.85;;;19.00;72.60;;;;;;5046924;28;20024;-50
2021/08/23 07:15:09;;;;;;;3.33;1.88;;;19.20;72.70;;;;;;5047357;28;20088;-50
2021/08/23 07:17:53;;;;;;;3.72;1.85;;;19.40;71.80;;;;;;5046980;28;20111;-53
2021/08/23 07:20:37;;;;;;;3.60;1.70;;;20.00;70.00;;;;;;5046805;28;20339;-52
2021/08/23 07:23:21;;;;;;;6.18;2.00;;;20.40;68.70;;;;;;5047278;28;20217;-54
2021/08/23 07:26:06;;;;;;;3.60;1.95;;;20.40;68.50;;;;;;5047394;28;20093;-52
2021/08/23 07:28:50;;;;;;;3.90;1.80;;;20.30;68.40;;;;;;5046796;28;20083;-54
2021/08/23 07:31:34;;;;;;;2.58;1.30;;;20.30;68.80;;;;;;5046871;28;20028;-52
2021/08/23 07:34:19;;;;;;;4.60;1.63;;;20.30;68.70;;;;;;5046716;28;20388;-54
2021/08/23 07:37:03;;;;;;;4.72;1.63;;;20.30;68.60;;;;;;5046558;28;20090;-54
2021/08/23 07:39:47;;;;;;;3.60;2.03;;;20.30;68.60;;;;;;5046649;28;20033;-50
2021/08/23 07:42:31;;;;;;;3.88;1.60;;;20.30;68.90;;;;;;5046356;28;20080;-53
2021/08/23 07:45:18;;;;;;;4.13;1.30;;;20.20;68.10;;;;;;5046288;28;20090;-53
2021/08/23 07:48:03;;;;;;;2.50;1.52;;;20.10;68.20;;;;;;5046771;28;20354;-54
2021/08/23 07:50:47;;;;;;;2.50;1.65;;;20.10;68.40;;;;;;5046420;28;20039;-53
2021/08/23 07:53:31;;;;;;;3.72;1.75;;;20.00;68.90;;;;;;5051847;28;20082;-53
2021/08/23 07:56:15;;;;;;;4.00;2.00;;;20.00;68.80;;;;;;5045876;28;20037;-53
2021/08/23 07:58:59;;;;;;;4.28;1.85;;;19.80;68.60;;;;;;5045927;28;20055;-53
2021/08/23 08:01:44;;;;;;;4.35;1.90;;;19.80;68.10;;;;;;5046294;28;20031;-54
2021/08/23 08:04:28;;;;;;;3.55;1.88;;;19.80;68.70;;;;;;5046238;28;20398;-53
2021/08/23 08:07:12;;;;;;;5.22;1.85;;;19.80;69.00;;;;;;5046334;28;20071;-54
2021/08/23 08:09:56;;;;;;;7.60;1.85;;;19.80;69.70;;;;;;5044845;28;20043;-54
2021/08/23 08:12:41;;;;;;;3.97;2.00;;;19.80;69.70;;;;;;5045743;28;20221;-53
2021/08/23 08:15:25;;;;;;;6.55;1.63;;;19.80;69.90;;;;;;5045693;28;20152;-53
2021/08/23 08:18:09;;;;;;;3.38;2.00;;;19.80;69.90;;;;;;5046362;28;20035;-50
2021/08/23 08:20:53;;;;;;;3.45;1.85;;;19.70;69.90;;;;;;5045808;28;20036;-54
2021/08/23 08:23:37;;;;;;;3.45;1.90;;;19.70;69.80;;;;;;5046172;28;20072;-54
2021/08/23 08:26:22;;;;;;;5.90;1.65;;;19.70;70.10;;;;;;5045641;28;20032;-52
2021/08/23 08:29:06;;;;;;;5.05;1.83;;;19.70;69.70;;;;;;5045594;28;20032;-54
2021/08/23 08:31:50;;;;;;;3.90;1.85;;;19.80;69.40;;;;;;5045395;28;20141;-53
2021/08/23 08:34:35;;;;;;;5.28;1.65;;;19.90;69.50;;;;;;5045598;28;20028;-51
2021/08/23 08:37:19;;;;;;;2.90;1.58;;;20.00;69.90;;;;;;5045205;28;20374;-53
2021/08/23 08:40:05;;;;;;;4.35;1.90;;;20.00;69.70;;;;;;5045226;28;20143;-54
2021/08/23 08:42:49;;;;;;;4.93;1.73;;;19.90;69.70;;;;;;5045233;28;20083;-51
2021/08/23 08:45:33;;;;;;;5.00;2.03;;;20.00;69.20;;;;;;5045180;28;20040;-53
2021/08/23 08:48:18;;;;;;;6.30;1.85;;;20.10;68.50;;;;;;5043903;28;20036;-52
2021/08/23 08:51:03;;;;;;;9.40;2.03;;;20.10;69.30;;;;;;5045553;28;20029;-53
2021/08/23 08:53:47;;;;;;;2.65;1.50;;;20.10;69.00;;;;;;5044238;28;20044;-53
2021/08/23 08:56:32;;;;;;;2.22;1.42;;;20.10;69.10;;;;;;5045465;28;20044;-54
2021/08/23 08:59:16;;;;;;;4.38;1.52;;;20.00;69.00;;;;;;5044398;28;20052;-54
2021/08/23 09:02:00;;;;;;;4.55;1.85;;;20.10;68.90;;;;;;5044221;28;20028;-53
2021/08/23 09:04:44;;;;;;;4.43;2.17;;;20.10;68.50;;;;;;5043895;28;20225;-54
2021/08/23 09:07:37;;;;;;;7.00;1.80;;;20.20;68.50;;;;;;5044826;28;20032;-54
2021/08/23 09:10:25;;;;;;;3.75;1.60;;;20.20;68.70;;;;;;5044250;28;20166;-52
2021/08/23 09:13:11;;;;;;;3.10;1.75;;;20.30;69.10;;;;;;5045086;28;20024;-54
2021/08/23 09:15:56;;;;;;;4.15;1.90;;;20.30;68.70;;;;;;5044701;28;20075;-54
2021/08/23 09:18:40;;;;;;;3.55;1.90;;;20.50;68.90;;;;;;5044527;28;20056;-54
2021/08/23 09:21:29;;;;;;;4.15;1.95;;;20.50;68.50;;;;;;5044406;28;20040;-53
2021/08/23 09:24:18;;;;;;;3.92;1.90;;;20.60;68.50;;;;;;5044421;28;20036;-53
2021/08/23 09:27:06;;;;;;;2.92;1.60;;;20.60;68.10;;;;;;5045024;28;20033;-53
2021/08/23 09:29:55;;;;;;;2.72;1.70;;;20.60;68.30;;;;;;5043598;28;20040;-54
2021/08/23 09:32:49;;;;;;;2.55;1.45;;;20.60;68.50;;;;;;5044523;28;20032;-52
2021/08/23 09:35:37;;;;;;;6.20;1.60;;;20.60;66.70;;;;;;5043932;28;20066;-54
2021/08/23 09:38:21;;;;;;;6.72;2.35;;;20.60;67.10;;;;;;5043752;28;20120;-53
2021/08/23 09:41:06;;;;;;;7.55;2.22;;;20.60;67.50;;;;;;5043724;28;20041;-54
2021/08/23 09:44:09;;;;;;;2.88;1.83;;;20.70;68.00;;;;;;5044475;28;20033;-54
2021/08/23 09:46:56;;;;;;;4.85;1.90;;;20.80;67.20;;;;;;5044679;28;20213;-53
2021/08/23 09:49:44;;;;;;;3.08;1.73;;;20.80;67.40;;;;;;5044611;28;20336;-53
2021/08/23 09:52:34;;;;;;;3.72;1.95;;;20.70;67.60;;;;;;5044401;28;20032;-53
2021/08/23 09:55:18;;;;;;;5.32;2.03;;;20.70;67.40;;;;;;5043807;28;20112;-53
2021/08/23 09:58:03;;;;;;;3.83;2.00;;;20.60;68.10;;;;;;5042933;28;20135;-50
2021/08/23 10:00:47;;;;;;;4.85;1.90;;;20.60;67.60;;;;;;5042757;28;20067;-54
2021/08/23 10:03:31;;;;;;;4.82;1.70;;;20.60;67.60;;;;;;5043063;28;20382;-54
2021/08/23 10:06:16;;;;;;;4.25;2.13;;;20.60;67.60;;;;;;5043821;28;20028;-52
2021/08/23 10:09:01;;;;;;;3.08;1.60;;;20.50;67.40;;;;;;5044324;28;20033;-54
2021/08/23 10:11:47;;;;;;;3.88;1.60;;;20.50;67.40;;;;;;5043057;28;20036;-54
2021/08/23 10:14:31;;;;;;;4.53;1.90;;;20.50;67.30;;;;;;5042752;28;20099;-52
2021/08/23 10:17:15;;;;;;;3.65;1.73;;;20.50;67.40;;;;;;5044192;28;20033;-54
2021/08/23 10:19:59;;;;;;;3.95;1.67;;;20.40;67.00;;;;;;5044151;28;20093;-54
2021/08/23 10:22:43;;;;;;;4.22;1.70;;;20.40;66.20;;;;;;5050628;28;20028;-54
2021/08/23 10:25:28;;;;;;;4.32;1.98;;;20.50;66.70;;;;;;5049267;28;20029;-53
2021/08/23 10:28:12;;;;;;;3.40;1.70;;;20.50;66.50;;;;;;5050209;28;20392;-54
2021/08/23 10:31:05;;;;;;;4.68;2.20;;;20.50;66.30;;;;;;5050657;28;20075;-54
2021/08/23 10:33:49;;;;;;;5.25;1.75;;;20.60;66.70;;;;;;5050211;28;20024;-53
2021/08/23 10:36:34;;;;;;;4.45;1.70;;;20.70;66.80;;;;;;5050367;28;20072;-53
2021/08/23 10:39:25;;;;;;;4.18;1.67;;;20.70;66.90;;;;;;5050128;28;20063;-51
2021/08/23 10:42:13;;;;;;;3.13;1.40;;;20.80;67.00;;;;;;5050556;28;20024;-53
2021/08/23 10:45:05;;;;;;;3.25;1.48;;;20.90;67.40;;;;;;5050173;28;20264;-53
2021/08/23 10:47:49;;;;;;;1.70;1.23;;;20.90;65.80;;;;;;5050066;28;20060;-52
2021/08/23 10:50:36;;;;;;;3.78;1.48;;;21.00;67.30;;;;;;5049708;28;20052;-52
2021/08/23 10:53:31;;;;;;;6.03;2.00;;;21.10;67.10;;;;;;5050443;28;20052;-52
2021/08/23 10:56:17;;;;;;;2.38;1.40;;;21.00;66.60;;;;;;5050392;28;20119;-53
2021/08/23 10:59:14;;;;;;;2.25;1.25;;;21.00;66.10;;;;;;5050393;28;20040;-52
2021/08/23 11:01:58;;;;;;;2.08;1.40;;;21.10;64.90;;;;;;5050067;28;20059;-53
2021/08/23 11:04:57;;;;;;;3.65;1.60;;;21.20;65.50;;;;;;5050177;28;20270;-50
2021/08/23 11:07:42;;;;;;;3.13;1.55;;;21.40;66.90;;;;;;5050195;28;20072;-53
2021/08/23 11:10:28;;;;;;;2.30;1.30;;;21.60;66.00;;;;;;5050124;28;20028;-53
2021/08/23 11:13:18;;;;;;;2.15;1.33;;;21.70;64.50;;;;;;5049778;28;20068;-54
2021/08/23 11:16:06;;;;;;;2.70;1.40;;;21.70;63.70;;;;;;5049966;28;20256;-53
2021/08/23 11:18:50;;;;;;;4.47;1.40;;;21.80;64.00;;;;;;5049672;28;20032;-53
2021/08/23 11:21:34;;;;;;;2.05;1.33;;;21.80;63.90;;;;;;5048953;28;20088;-54
2021/08/23 11:24:19;;;;;;;4.40;1.60;;;22.00;64.10;;;;;;5049651;28;20213;-53
2021/08/23 11:27:04;;;;;;;6.22;1.60;;;22.10;63.50;;;;;;5050896;28;20071;-54
2021/08/23 11:29:52;;;;;;;2.22;1.50;;;22.30;62.70;;;;;;5049795;28;20243;-54
2021/08/23 11:32:36;;;;;;;3.67;1.73;;;22.40;62.60;;;;;;5047783;28;20056;-53
2021/08/23 11:35:21;;;;;;;2.30;1.35;;;22.40;61.60;;;;;;5045622;28;20056;-52
2021/08/23 11:38:07;;;;;;;4.00;1.50;;;22.50;62.30;;;;;;5046742;28;20056;-54
2021/08/23 11:40:51;;;;;;;2.97;1.30;;;22.80;61.90;;;;;;5046823;28;20048;-53
2021/08/23 11:43:36;;;;;;;3.08;1.50;;;22.80;60.80;;;;;;5046650;28;20268;-53
2021/08/23 11:46:20;;;;;;;2.20;1.38;;;22.80;61.30;;;;;;5046605;28;20033;-54
2021/08/23 11:49:04;;;;;;;4.05;1.65;;;22.80;60.90;;;;;;5046527;28;20028;-54
2021/08/23 11:51:49;;;;;;;3.10;1.48;;;22.80;60.90;;;;;;5046331;28;20262;-53
2021/08/23 11:54:33;;;;;;;4.65;1.67;;;22.80;60.40;;;;;;5046240;28;20403;-54
2021/08/23 11:57:22;;;;;;;2.80;1.25;;;22.90;59.80;;;;;;5045224;28;20037;-52
2021/08/23 12:00:06;;;;;;;3.03;1.38;;;23.00;59.60;;;;;;5046642;28;20020;-53
2021/08/23 12:03:03;;;;;;;4.40;1.65;;;23.20;60.40;;;;;;5046289;28;20060;-53
2021/08/23 12:05:48;;;;;;;4.05;1.60;;;23.30;59.90;;;;;;5045097;28;20036;-53
2021/08/23 12:08:37;;;;;;;3.17;1.55;;;23.40;59.80;;;;;;5044951;28;20052;-52
2021/08/23 12:11:21;;;;;;;3.17;1.45;;;23.40;59.90;;;;;;5045724;28;20036;-54
2021/08/23 12:14:16;;;;;;;3.70;1.65;;;23.50;58.40;;;;;;5045845;28;20240;-53
2021/08/23 12:17:08;;;;;;;5.25;1.70;;;23.50;57.60;;;;;;5032859;28;20076;-53
2021/08/23 12:20:03;;;;;;;3.47;1.55;;;23.60;57.50;;;;;;5045723;28;20076;-54
2021/08/23 12:22:47;;;;;;;2.70;1.42;;;23.70;57.00;;;;;;5045781;28;20268;-54
2021/08/23 12:25:31;;;;;;;4.20;1.50;;;23.70;56.20;;;;;;5045636;28;20036;-54
2021/08/23 12:28:16;;;;;;;10.85;2.35;;;23.80;56.40;;;;;;5045533;28;20097;-53
2021/08/23 12:31:07;;;;;;;11.20;2.65;;;23.80;56.90;;;;;;5045853;28;20105;-54
2021/08/23 12:33:51;;;;;;;9.90;2.33;;;23.90;55.60;;;;;;5045637;28;20196;-54
2021/08/23 12:36:35;;;;;;;3.70;1.60;;;24.00;55.90;;;;;;5045400;28;20101;-53
2021/08/23 12:39:20;;;;;;;3.60;1.75;;;23.90;56.20;;;;;;5045370;28;20052;-54
2021/08/23 12:42:06;;;;;;;3.95;1.75;;;24.00;56.60;;;;;;5045795;28;20029;-54
2021/08/23 12:44:50;;;;;;;3.80;1.80;;;24.10;57.40;;;;;;5044341;28;20051;-55
2021/08/23 12:47:34;;;;;;;3.30;1.40;;;24.20;55.90;;;;;;5045646;28;20037;-55
2021/08/23 12:50:19;;;;;;;4.38;1.50;;;24.20;56.70;;;;;;5044883;28;20351;-53
2021/08/23 12:53:04;;;;;;;4.18;1.30;;;24.20;54.80;;;;;;5045032;28;20392;-55
2021/08/23 12:55:49;;;;;;;3.72;1.70;;;24.20;55.70;;;;;;5045369;28;20033;-54
2021/08/23 12:58:33;;;;;;;5.28;1.48;;;24.20;55.10;;;;;;5045163;28;20086;-54
2021/08/23 13:01:17;;;;;;;3.55;1.42;;;24.20;54.80;;;;;;5045065;28;20040;-54
2021/08/23 13:04:02;;;;;;;3.35;1.45;;;24.10;55.10;;;;;;5044916;28;20036;-54
2021/08/23 13:06:46;;;;;;;4.50;1.27;;;24.00;55.10;;;;;;5044934;28;20033;-54
2021/08/23 13:09:30;;;;;;;3.15;1.48;;;24.00;53.80;;;;;;5045292;28;20110;-52
2021/08/23 13:12:14;;;;;;;4.00;1.95;;;23.80;54.50;;;;;;5044828;28;20023;-54
2021/08/23 13:14:59;;;;;;;2.60;1.50;;;23.80;55.00;;;;;;5045130;28;20080;-54
2021/08/23 13:17:43;;;;;;;5.75;1.60;;;23.70;54.80;;;;;;5044797;28;20083;-53
2021/08/23 13:20:27;;;;;;;2.70;1.33;;;23.70;55.50;;;;;;5045136;28;20052;-55
2021/08/23 13:23:13;;;;;;;3.55;1.40;;;23.80;56.20;;;;;;5044761;28;20029;-55
2021/08/23 13:25:57;;;;;;;4.15;1.60;;;23.70;55.40;;;;;;5043907;28;20032;-54
2021/08/23 13:28:41;;;;;;;2.85;1.45;;;23.70;55.50;;;;;;5044338;28;20024;-54
2021/08/23 13:31:27;;;;;;;3.40;1.75;;;23.70;55.60;;;;;;5044666;28;20079;-54
2021/08/23 13:34:11;;;;;;;4.63;1.85;;;23.60;55.70;;;;;;5044632;28;20029;-54
2021/08/23 13:36:56;;;;;;;4.57;1.40;;;23.50;55.40;;;;;;5044290;28;20028;-54
2021/08/23 13:39:40;;;;;;;4.20;1.40;;;23.50;55.60;;;;;;5044297;28;20071;-54
2021/08/23 13:42:24;;;;;;;2.38;1.40;;;23.40;54.20;;;;;;5044892;28;20065;-54
2021/08/23 13:45:09;;;;;;;2.60;1.30;;;23.50;54.70;;;;;;5044622;28;20265;-54
2021/08/23 13:47:53;;;;;;;4.18;1.60;;;23.50;55.80;;;;;;5044222;28;20040;-53
2021/08/23 13:50:38;;;;;;;2.97;1.35;;;23.60;54.80;;;;;;5044187;28;20048;-55
2021/08/23 13:53:23;;;;;;;4.43;1.50;;;23.60;55.30;;;;;;5044464;28;20045;-54
2021/08/23 13:56:07;;;;;;;4.43;1.30;;;23.60;54.30;;;;;;5043560;28;20072;-54
2021/08/23 13:58:57;;;;;;;3.20;1.45;;;23.60;54.00;;;;;;5043737;28;20043;-54
2021/08/23 14:01:41;;;;;;;4.63;1.50;;;23.70;54.30;;;;;;5043975;28;20076;-53
2021/08/23 14:04:26;;;;;;;3.40;1.27;;;23.60;54.70;;;;;;5043887;28;20033;-53
2021/08/23 14:07:10;;;;;;;3.85;1.40;;;23.60;54.70;;;;;;5044125;28;20097;-54
2021/08/23 14:09:54;;;;;;;5.40;1.58;;;23.50;55.10;;;;;;5043857;28;20036;-54
2021/08/23 14:12:38;;;;;;;5.20;1.40;;;23.50;55.10;;;;;;5043721;28;20071;-54
2021/08/23 14:15:23;;;;;;;3.35;1.67;;;23.50;55.00;;;;;;5044347;28;20056;-53
2021/08/23 14:18:07;;;;;;;3.28;1.35;;;23.50;55.50;;;;;;5044075;28;20107;-54